createdAt,value
2016-06-30T00:00:02.224Z,82.2
2016-06-30T00:00:12.224Z,82.1
2016-06-30T00:00:22.238Z,82.7
2016-06-30T00:00:32.237Z,81.9
2016-06-30T00:00:42.248Z,82
2016-06-30T00:00:52.256Z,82
2016-06-30T00:01:02.343Z,82.5
2016-06-30T00:01:12.264Z,82.5
2016-06-30T00:01:22.267Z,81.6
2016-06-30T00:01:32.282Z,82.5
2016-06-30T00:01:42.288Z,82.2
2016-06-30T00:01:52.288Z,81.9
2016-06-30T00:02:02.288Z,82.1
2016-06-30T00:02:12.312Z,82.2
2016-06-30T00:02:22.319Z,82.2
2016-06-30T00:02:31.129Z,82.6
2016-06-30T00:02:42.338Z,82.2
2016-06-30T00:02:52.329Z,82.3
2016-06-30T00:03:02.341Z,82.3
2016-06-30T00:03:11.135Z,81.9
2016-06-30T00:03:22.370Z,82.1
2016-06-30T00:03:32.358Z,82
2016-06-30T00:03:42.398Z,82.5
2016-06-30T00:03:52.365Z,82.4
2016-06-30T00:04:02.383Z,82.5
2016-06-30T00:04:12.375Z,82.5
2016-06-30T00:04:22.402Z,82.6
2016-06-30T00:04:32.406Z,82.4
2016-06-30T00:04:41.215Z,82.4
2016-06-30T00:04:52.398Z,82.4
2016-06-30T00:05:02.427Z,82.5
2016-06-30T00:05:12.435Z,82.1
2016-06-30T00:05:22.430Z,82.4
2016-06-30T00:05:32.465Z,82.5
2016-06-30T00:05:42.457Z,82.5
2016-06-30T00:05:52.444Z,82.5
2016-06-30T00:06:02.453Z,82.4
2016-06-30T00:06:12.533Z,81.8
2016-06-30T00:06:22.462Z,82.4
2016-06-30T00:06:32.485Z,82.5
2016-06-30T00:06:42.490Z,82.7
2016-06-30T00:06:52.529Z,82.5
2016-06-30T00:07:02.497Z,81.5
2016-06-30T00:07:12.493Z,82.5
2016-06-30T00:07:22.495Z,82.5
2016-06-30T00:07:32.507Z,82.4
2016-06-30T00:07:42.514Z,81.7
2016-06-30T00:07:51.323Z,82
2016-06-30T00:08:02.536Z,82.1
2016-06-30T00:08:12.555Z,82
2016-06-30T00:08:22.532Z,82
2016-06-30T00:08:32.547Z,82.1
2016-06-30T00:08:42.556Z,82.5
2016-06-30T00:08:52.574Z,82.3
2016-06-30T00:09:02.575Z,82.3
2016-06-30T00:09:12.571Z,82.4
2016-06-30T00:09:22.572Z,82.2
2016-06-30T00:09:32.581Z,82.2
2016-06-30T00:09:42.607Z,81.8
2016-06-30T00:09:52.595Z,82.5
2016-06-30T00:10:02.617Z,82.6
2016-06-30T00:10:11.418Z,82.6
2016-06-30T00:10:22.629Z,82.7
2016-06-30T00:10:32.626Z,82.4
2016-06-30T00:10:42.626Z,82.2
2016-06-30T00:10:52.645Z,82.3
2016-06-30T00:11:02.654Z,82.1
2016-06-30T00:11:12.651Z,82.5
2016-06-30T00:11:22.661Z,82.5
2016-06-30T00:11:32.666Z,82.6
2016-06-30T00:11:41.479Z,81.8
2016-06-30T00:11:52.682Z,81.9
2016-06-30T00:12:02.725Z,82.5
2016-06-30T00:12:12.711Z,82.5
2016-06-30T00:12:22.685Z,82.6
2016-06-30T00:12:32.716Z,82.4
2016-06-30T00:12:42.743Z,82.4
2016-06-30T00:12:52.705Z,82.5
2016-06-30T00:13:01.516Z,82.6
2016-06-30T00:13:12.723Z,82.5
2016-06-30T00:13:22.778Z,82.4
2016-06-30T00:13:32.732Z,82
2016-06-30T00:13:42.735Z,82
2016-06-30T00:13:52.767Z,82.1
2016-06-30T00:14:01.569Z,82.2
2016-06-30T00:14:12.760Z,82
2016-06-30T00:14:22.795Z,82.4
2016-06-30T00:14:31.579Z,82.2
2016-06-30T00:14:42.859Z,82.4
2016-06-30T00:14:52.802Z,82.1
2016-06-30T00:15:02.794Z,82.1
2016-06-30T00:15:12.795Z,82.2
2016-06-30T00:15:22.850Z,82.2
2016-06-30T00:15:32.854Z,81.9
2016-06-30T00:15:42.826Z,81.8
2016-06-30T00:15:52.844Z,82.1
2016-06-30T00:16:02.841Z,82.1
2016-06-30T00:16:12.842Z,82.4
2016-06-30T00:16:22.840Z,81.9
2016-06-30T00:16:32.853Z,81.9
2016-06-30T00:16:42.865Z,82.4
2016-06-30T00:16:52.879Z,82.7
2016-06-30T00:17:02.879Z,82.4
2016-06-30T00:17:12.871Z,81.8
2016-06-30T00:17:22.889Z,82.5
2016-06-30T00:17:31.720Z,82.5
2016-06-30T00:17:42.902Z,82.4
2016-06-30T00:17:52.907Z,81.9
2016-06-30T00:18:02.915Z,81.8
2016-06-30T00:18:11.740Z,81.3
2016-06-30T00:18:22.930Z,82.4
2016-06-30T00:18:32.931Z,81.9
2016-06-30T00:18:41.748Z,82.3
2016-06-30T00:18:52.943Z,82.5
2016-06-30T00:19:02.955Z,82.5
2016-06-30T00:19:12.983Z,82.5
2016-06-30T00:19:22.963Z,82.8
2016-06-30T00:19:32.967Z,82.4
2016-06-30T00:19:41.790Z,82.3
2016-06-30T00:19:52.994Z,82.4
2016-06-30T00:20:03.003Z,82.4
2016-06-30T00:20:13.001Z,82.4
2016-06-30T00:20:23.009Z,82
2016-06-30T00:20:33.017Z,82
2016-06-30T00:20:43.029Z,81.9
2016-06-30T00:20:53.026Z,82.2
2016-06-30T00:21:03.047Z,82.1
2016-06-30T00:21:11.870Z,82.3
2016-06-30T00:21:23.040Z,82.2
2016-06-30T00:21:33.049Z,82.4
2016-06-30T00:21:43.054Z,82.2
2016-06-30T00:21:53.076Z,82.1
2016-06-30T00:22:03.062Z,82
2016-06-30T00:22:13.093Z,82.5
2016-06-30T00:22:23.081Z,82.5
2016-06-30T00:22:33.106Z,82.5
2016-06-30T00:22:41.906Z,82.1
2016-06-30T00:22:53.110Z,82.3
2016-06-30T00:23:03.111Z,82.5
2016-06-30T00:23:13.130Z,82.5
2016-06-30T00:23:23.127Z,82.5
2016-06-30T00:23:33.125Z,81.9
2016-06-30T00:23:43.143Z,82.2
2016-06-30T00:23:53.158Z,82.3
2016-06-30T00:24:03.143Z,82.3
2016-06-30T00:24:13.149Z,82
2016-06-30T00:24:23.175Z,82
2016-06-30T00:24:33.160Z,81.7
2016-06-30T00:24:43.175Z,82.4
2016-06-30T00:24:51.983Z,82
2016-06-30T00:25:03.187Z,81.8
2016-06-30T00:25:13.198Z,82.1
2016-06-30T00:25:23.199Z,82.3
2016-06-30T00:25:33.199Z,82.4
2016-06-30T00:25:43.215Z,82.2
2016-06-30T00:25:53.214Z,82.2
2016-06-30T00:26:03.239Z,82.2
2016-06-30T00:26:13.228Z,82.2
2016-06-30T00:26:23.228Z,82.2
2016-06-30T00:26:33.247Z,82
2016-06-30T00:26:43.266Z,82.1
2016-06-30T00:26:53.260Z,82.2
2016-06-30T00:27:03.267Z,82.1
2016-06-30T00:27:13.288Z,82.3
2016-06-30T00:27:23.270Z,82.3
2016-06-30T00:27:33.278Z,82
2016-06-30T00:27:43.315Z,82
2016-06-30T00:27:53.296Z,82.2
2016-06-30T00:28:03.298Z,82.2
2016-06-30T00:28:13.293Z,82.1
2016-06-30T00:28:23.307Z,81.9
2016-06-30T00:28:33.341Z,81.8
2016-06-30T00:28:43.319Z,82
2016-06-30T00:28:53.331Z,82
2016-06-30T00:29:03.352Z,82.2
2016-06-30T00:29:13.346Z,82
2016-06-30T00:29:23.369Z,82.3
2016-06-30T00:29:32.175Z,82.2
2016-06-30T00:29:43.378Z,82
2016-06-30T00:29:53.369Z,82
2016-06-30T00:30:03.379Z,82.2
2016-06-30T00:30:13.395Z,81.9
2016-06-30T00:30:23.394Z,82.2
2016-06-30T00:30:33.428Z,82.1
2016-06-30T00:30:43.405Z,82.2
2016-06-30T00:30:53.421Z,82.1
2016-06-30T00:31:03.414Z,82.3
2016-06-30T00:31:13.468Z,82.1
2016-06-30T00:31:23.426Z,82.1
2016-06-30T00:31:33.439Z,82.2
2016-06-30T00:31:43.436Z,81.8
2016-06-30T00:31:53.456Z,82.1
2016-06-30T00:32:03.453Z,82.1
2016-06-30T00:32:13.463Z,82.1
2016-06-30T00:32:23.471Z,81.9
2016-06-30T00:32:33.464Z,81.8
2016-06-30T00:32:43.501Z,81.4
2016-06-30T00:32:53.500Z,81.6
2016-06-30T00:33:03.475Z,81.7
2016-06-30T00:33:13.507Z,81.6
2016-06-30T00:33:23.503Z,81.6
2016-06-30T00:33:33.508Z,81.5
2016-06-30T00:33:43.506Z,81.7
2016-06-30T00:33:53.537Z,81.6
2016-06-30T00:34:03.531Z,81.9
2016-06-30T00:34:13.532Z,82.2
2016-06-30T00:34:23.534Z,81.2
2016-06-30T00:34:33.543Z,81.1
2016-06-30T00:34:43.554Z,82.1
2016-06-30T00:34:53.555Z,81.8
2016-06-30T00:35:03.566Z,81.6
2016-06-30T00:35:13.567Z,81.6
2016-06-30T00:35:23.577Z,81.8
2016-06-30T00:35:33.590Z,81.8
2016-06-30T00:35:43.586Z,81.6
2016-06-30T00:35:52.403Z,81.6
2016-06-30T00:36:03.607Z,81.6
2016-06-30T00:36:13.643Z,81.6
2016-06-30T00:36:23.627Z,81.8
2016-06-30T00:36:32.445Z,81.9
2016-06-30T00:36:43.625Z,82
2016-06-30T00:36:53.630Z,81.9
2016-06-30T00:37:03.648Z,81.6
2016-06-30T00:37:13.665Z,81.6
2016-06-30T00:37:23.653Z,81.5
2016-06-30T00:37:33.662Z,81.8
2016-06-30T00:37:43.754Z,81.6
2016-06-30T00:37:53.697Z,81.9
2016-06-30T00:38:02.486Z,81.6
2016-06-30T00:38:13.690Z,81.9
2016-06-30T00:38:23.724Z,81.2
2016-06-30T00:38:32.510Z,81.1
2016-06-30T00:38:43.700Z,81.2
2016-06-30T00:38:53.719Z,81.4
2016-06-30T00:39:03.742Z,81.2
2016-06-30T00:39:12.535Z,81.3
2016-06-30T00:39:23.756Z,81.3
2016-06-30T00:39:33.737Z,81.5
2016-06-30T00:39:43.737Z,81.4
2016-06-30T00:39:53.755Z,81.5
2016-06-30T00:40:02.572Z,81.1
2016-06-30T00:40:13.774Z,81.8
2016-06-30T00:40:23.791Z,81.6
2016-06-30T00:40:33.776Z,81.7
2016-06-30T00:40:43.783Z,81.7
2016-06-30T00:40:53.780Z,81.6
2016-06-30T00:41:03.831Z,81.8
2016-06-30T00:41:13.818Z,81.2
2016-06-30T00:41:23.803Z,81.5
2016-06-30T00:41:32.674Z,81.2
2016-06-30T00:41:43.829Z,81.2
2016-06-30T00:41:53.835Z,81
2016-06-30T00:42:03.860Z,81.5
2016-06-30T00:42:13.867Z,81.2
2016-06-30T00:42:23.857Z,81.3
2016-06-30T00:42:33.861Z,81.4
2016-06-30T00:42:43.870Z,81.4
2016-06-30T00:42:53.857Z,81
2016-06-30T00:43:03.867Z,81.2
2016-06-30T00:43:13.889Z,81.2
2016-06-30T00:43:23.876Z,81.1
2016-06-30T00:43:32.702Z,81.2
2016-06-30T00:43:43.902Z,81
2016-06-30T00:43:53.907Z,81.5
2016-06-30T00:44:02.716Z,81.5
2016-06-30T00:44:14.036Z,81.6
2016-06-30T00:44:23.923Z,81.4
2016-06-30T00:44:33.939Z,81.6
2016-06-30T00:44:43.932Z,80.9
2016-06-30T00:44:53.993Z,81.5
2016-06-30T00:45:03.977Z,81.4
2016-06-30T00:45:13.953Z,81.4
2016-06-30T00:45:22.791Z,81.3
2016-06-30T00:45:34.161Z,81.1
2016-06-30T00:45:43.983Z,81.1
2016-06-30T00:45:53.974Z,81
2016-06-30T00:46:03.991Z,81.9
2016-06-30T00:46:14.054Z,81.7
2016-06-30T00:46:24.012Z,81.7
2016-06-30T00:46:34.010Z,81.5
2016-06-30T00:46:44.028Z,82.1
2016-06-30T00:46:54.057Z,82.1
2016-06-30T00:47:04.027Z,82
2016-06-30T00:47:14.270Z,82.1
2016-06-30T00:47:24.039Z,81.6
2016-06-30T00:47:34.081Z,81.4
2016-06-30T00:47:44.044Z,81.6
2016-06-30T00:47:54.101Z,81.5
2016-06-30T00:48:02.883Z,81.7
2016-06-30T00:48:14.128Z,82.1
2016-06-30T00:48:24.088Z,81.8
2016-06-30T00:48:34.157Z,82.2
2016-06-30T00:48:44.099Z,81.6
2016-06-30T00:48:54.086Z,81.6
2016-06-30T00:49:04.106Z,81.8
2016-06-30T00:49:14.151Z,82
2016-06-30T00:49:24.134Z,81.9
2016-06-30T00:49:34.121Z,81.6
2016-06-30T00:49:44.131Z,81.5
2016-06-30T00:49:54.140Z,81.6
2016-06-30T00:50:04.141Z,81.6
2016-06-30T00:50:14.152Z,81.8
2016-06-30T00:50:24.153Z,81.8
2016-06-30T00:50:34.171Z,81.8
2016-06-30T00:50:44.172Z,81.6
2016-06-30T00:50:54.174Z,81.7
2016-06-30T00:51:02.991Z,81.6
2016-06-30T00:51:14.207Z,81.7
2016-06-30T00:51:24.194Z,81.5
2016-06-30T00:51:33.007Z,81.9
2016-06-30T00:51:44.198Z,81.5
2016-06-30T00:51:54.226Z,81.6
2016-06-30T00:52:04.210Z,81.5
2016-06-30T00:52:14.229Z,81.7
2016-06-30T00:52:24.235Z,81.7
2016-06-30T00:52:34.266Z,81.9
2016-06-30T00:52:44.243Z,81.8
2016-06-30T00:52:54.266Z,81.7
2016-06-30T00:53:04.261Z,81.5
2016-06-30T00:53:14.276Z,81.7
2016-06-30T00:53:24.280Z,82.1
2016-06-30T00:53:34.271Z,81.8
2016-06-30T00:53:44.291Z,81.9
2016-06-30T00:53:54.287Z,82
2016-06-30T00:54:04.289Z,82.1
2016-06-30T00:54:14.294Z,81.9
2016-06-30T00:54:24.317Z,82
2016-06-30T00:54:34.317Z,82.2
2016-06-30T00:54:44.314Z,82.2
2016-06-30T00:54:54.326Z,82
2016-06-30T00:55:04.438Z,81.9
2016-06-30T00:55:14.362Z,82
2016-06-30T00:55:24.364Z,82.1
2016-06-30T00:55:34.357Z,81.9
2016-06-30T00:55:44.464Z,82.1
2016-06-30T00:55:54.388Z,82
2016-06-30T00:56:04.373Z,81.9
2016-06-30T00:56:14.399Z,82.3
2016-06-30T00:56:24.459Z,82.4
2016-06-30T00:56:34.383Z,82.2
2016-06-30T00:56:44.420Z,81.8
2016-06-30T00:56:54.446Z,82.5
2016-06-30T00:57:04.465Z,82.5
2016-06-30T00:57:14.439Z,81.8
2016-06-30T00:57:24.426Z,82.1
2016-06-30T00:57:33.234Z,82.4
2016-06-30T00:57:44.438Z,82.2
2016-06-30T00:57:54.471Z,82.4
2016-06-30T00:58:03.252Z,81.9
2016-06-30T00:58:14.454Z,82.6
2016-06-30T00:58:24.470Z,82.4
2016-06-30T00:58:34.463Z,82.1
2016-06-30T00:58:44.493Z,82.4
2016-06-30T00:58:54.474Z,81.9
2016-06-30T00:59:04.509Z,81.7
2016-06-30T00:59:14.492Z,81.6
2016-06-30T00:59:24.497Z,81.6
2016-06-30T00:59:34.512Z,81.6
2016-06-30T00:59:44.534Z,81.8
2016-06-30T00:59:54.524Z,81.9
2016-06-30T01:00:03.338Z,81.7
2016-06-30T01:00:14.556Z,81.8
2016-06-30T01:00:24.545Z,82.1
2016-06-30T01:00:34.588Z,82
2016-06-30T01:00:44.568Z,82
2016-06-30T01:00:53.369Z,82.1
2016-06-30T01:01:04.562Z,81.6
2016-06-30T01:01:14.565Z,82.2
2016-06-30T01:01:24.579Z,82
2016-06-30T01:01:34.648Z,82.2
2016-06-30T01:01:44.589Z,82.2
2016-06-30T01:01:54.600Z,82.1
2016-06-30T01:02:04.622Z,81.8
2016-06-30T01:02:14.630Z,81.8
2016-06-30T01:02:24.621Z,82
2016-06-30T01:02:34.623Z,82
2016-06-30T01:02:44.628Z,81.9
2016-06-30T01:02:54.665Z,81.7
2016-06-30T01:03:04.675Z,82.2
2016-06-30T01:03:14.640Z,81.9
2016-06-30T01:03:24.650Z,82
2016-06-30T01:03:33.489Z,81.7
2016-06-30T01:03:44.661Z,82.3
2016-06-30T01:03:54.691Z,82.3
2016-06-30T01:04:04.689Z,82.5
2016-06-30T01:04:14.786Z,82
2016-06-30T01:04:24.704Z,81.9
2016-06-30T01:04:34.703Z,81.9
2016-06-30T01:04:44.702Z,82.6
2016-06-30T01:04:54.747Z,82.6
2016-06-30T01:05:04.722Z,81.9
2016-06-30T01:05:14.726Z,82.5
2016-06-30T01:05:24.740Z,82.1
2016-06-30T01:05:34.804Z,82.6
2016-06-30T01:05:44.741Z,82.3
2016-06-30T01:05:54.782Z,82.4
2016-06-30T01:06:04.770Z,82.4
2016-06-30T01:06:14.761Z,82.5
2016-06-30T01:06:24.802Z,82.7
2016-06-30T01:06:34.813Z,82.8
2016-06-30T01:06:44.776Z,82
2016-06-30T01:06:54.809Z,82
2016-06-30T01:07:04.836Z,82.3
2016-06-30T01:07:14.806Z,82.5
2016-06-30T01:07:24.799Z,82.5
2016-06-30T01:07:33.614Z,82
2016-06-30T01:07:44.823Z,82.4
2016-06-30T01:07:54.822Z,82.3
2016-06-30T01:08:03.651Z,82.5
2016-06-30T01:08:14.837Z,82.6
2016-06-30T01:08:24.864Z,82.1
2016-06-30T01:08:34.850Z,82.1
2016-06-30T01:08:44.860Z,82.5
2016-06-30T01:08:54.865Z,82.4
2016-06-30T01:09:04.878Z,82.3
2016-06-30T01:09:14.867Z,81.7
2016-06-30T01:09:24.879Z,82.4
2016-06-30T01:09:34.895Z,82.1
2016-06-30T01:09:44.892Z,82.1
2016-06-30T01:09:54.897Z,82
2016-06-30T01:10:03.731Z,82.1
2016-06-30T01:10:13.735Z,82.2
2016-06-30T01:10:24.919Z,82.3
2016-06-30T01:10:34.926Z,81.7
2016-06-30T01:10:44.938Z,81.8
2016-06-30T01:10:54.946Z,82.3
2016-06-30T01:11:04.952Z,82.2
2016-06-30T01:11:14.953Z,82.2
2016-06-30T01:11:24.963Z,82.1
2016-06-30T01:11:34.983Z,82.8
2016-06-30T01:11:44.979Z,82.5
2016-06-30T01:11:54.975Z,82.6
2016-06-30T01:12:03.794Z,82.5
2016-06-30T01:12:14.983Z,82.5
2016-06-30T01:12:24.993Z,82.6
2016-06-30T01:12:35.010Z,82.3
2016-06-30T01:12:45.025Z,82.3
2016-06-30T01:12:55.018Z,82.4
2016-06-30T01:13:05.033Z,82.2
2016-06-30T01:13:15.074Z,82.2
2016-06-30T01:13:25.043Z,82.5
2016-06-30T01:13:35.045Z,82.9
2016-06-30T01:13:45.059Z,82.3
2016-06-30T01:13:55.066Z,82.4
2016-06-30T01:14:05.065Z,82.5
2016-06-30T01:14:15.087Z,82.3
2016-06-30T01:14:23.888Z,82.4
2016-06-30T01:14:35.084Z,82.9
2016-06-30T01:14:43.895Z,82.5
2016-06-30T01:14:55.095Z,82.4
2016-06-30T01:15:05.104Z,82.6
2016-06-30T01:15:15.100Z,82.4
2016-06-30T01:15:25.112Z,82.3
2016-06-30T01:15:35.115Z,82.5
2016-06-30T01:15:45.146Z,82.5
2016-06-30T01:15:55.126Z,82.5
2016-06-30T01:16:05.132Z,82.5
2016-06-30T01:16:15.157Z,82.5
2016-06-30T01:16:25.150Z,82.4
2016-06-30T01:16:35.162Z,82.4
2016-06-30T01:16:43.977Z,82.5
2016-06-30T01:16:55.200Z,82.5
2016-06-30T01:17:05.176Z,82.3
2016-06-30T01:17:15.190Z,82.5
2016-06-30T01:17:25.189Z,82.5
2016-06-30T01:17:35.200Z,82.5
2016-06-30T01:17:45.218Z,82.9
2016-06-30T01:17:55.210Z,82.6
2016-06-30T01:18:05.218Z,82.7
2016-06-30T01:18:15.230Z,82.5
2016-06-30T01:18:24.028Z,82.5
2016-06-30T01:18:35.247Z,82.3
2016-06-30T01:18:44.088Z,82.5
2016-06-30T01:18:55.240Z,82.7
2016-06-30T01:19:05.257Z,82.5
2016-06-30T01:19:15.255Z,82.5
2016-06-30T01:19:25.283Z,82.5
2016-06-30T01:19:35.293Z,82.8
2016-06-30T01:19:45.285Z,82.6
2016-06-30T01:19:54.088Z,82.5
2016-06-30T01:20:05.299Z,82.1
2016-06-30T01:20:15.309Z,82.5
2016-06-30T01:20:25.304Z,82.7
2016-06-30T01:20:35.314Z,82.5
2016-06-30T01:20:44.140Z,82.5
2016-06-30T01:20:55.340Z,82.6
2016-06-30T01:21:05.333Z,83.1
2016-06-30T01:21:15.339Z,83.2
2016-06-30T01:21:25.357Z,83.1
2016-06-30T01:21:34.155Z,83.2
2016-06-30T01:21:45.369Z,83.1
2016-06-30T01:21:55.377Z,83
2016-06-30T01:22:05.480Z,83
2016-06-30T01:22:15.404Z,82.5
2016-06-30T01:22:25.374Z,83.2
2016-06-30T01:22:35.387Z,83
2016-06-30T01:22:45.415Z,82.5
2016-06-30T01:22:55.405Z,83.3
2016-06-30T01:23:06.267Z,82.7
2016-06-30T01:23:16.328Z,82.5
2016-06-30T01:23:26.015Z,82.8
2016-06-30T01:23:35.957Z,82.5
2016-06-30T01:23:45.757Z,83
2016-06-30T01:23:55.551Z,83.1
2016-06-30T01:24:05.494Z,83.3
2016-06-30T01:24:15.445Z,83
2016-06-30T01:24:24.289Z,82.5
2016-06-30T01:24:35.476Z,82.7
2016-06-30T01:24:45.483Z,82.6
2016-06-30T01:24:55.522Z,83
2016-06-30T01:25:05.491Z,83.3
2016-06-30T01:25:15.499Z,83.1
2016-06-30T01:25:25.490Z,83.2
2016-06-30T01:25:35.503Z,82.9
2016-06-30T01:25:45.527Z,82.8
2016-06-30T01:25:55.517Z,82.9
2016-06-30T01:26:05.515Z,83.1
2016-06-30T01:26:15.524Z,82.8
2016-06-30T01:26:25.537Z,83.1
2016-06-30T01:26:35.556Z,82.9
2016-06-30T01:26:45.551Z,83
2016-06-30T01:26:55.548Z,83
2016-06-30T01:27:05.557Z,82.9
2016-06-30T01:27:14.398Z,82.9
2016-06-30T01:27:25.568Z,83.1
2016-06-30T01:27:34.395Z,83
2016-06-30T01:27:45.595Z,83.7
2016-06-30T01:27:55.594Z,83.5
2016-06-30T01:28:05.614Z,83.4
2016-06-30T01:28:15.618Z,83.4
2016-06-30T01:28:25.607Z,83.5
2016-06-30T01:28:35.626Z,83.8
2016-06-30T01:28:45.652Z,83.5
2016-06-30T01:28:55.629Z,83.6
2016-06-30T01:29:05.642Z,83.7
2016-06-30T01:29:15.656Z,83.4
2016-06-30T01:29:25.662Z,83.4
2016-06-30T01:29:35.663Z,83.5
2016-06-30T01:29:45.700Z,83.6
2016-06-30T01:29:55.697Z,83.5
2016-06-30T01:30:05.675Z,83.7
2016-06-30T01:30:14.512Z,83.7
2016-06-30T01:30:25.687Z,83.7
2016-06-30T01:30:35.800Z,83.6
2016-06-30T01:30:45.735Z,83.6
2016-06-30T01:30:55.738Z,83.5
2016-06-30T01:31:05.719Z,83.7
2016-06-30T01:31:15.782Z,83.7
2016-06-30T01:31:25.732Z,83.8
2016-06-30T01:31:34.565Z,83.9
2016-06-30T01:31:44.610Z,83.8
2016-06-30T01:31:55.790Z,83.5
2016-06-30T01:32:05.745Z,83.3
2016-06-30T01:32:14.562Z,83.4
2016-06-30T01:32:24.619Z,83.5
2016-06-30T01:32:35.768Z,83.7
2016-06-30T01:32:45.794Z,83.6
2016-06-30T01:32:55.782Z,83.4
2016-06-30T01:33:06.029Z,83.5
2016-06-30T01:33:15.813Z,83.7
2016-06-30T01:33:25.819Z,83.7
2016-06-30T01:33:35.809Z,83.4
2016-06-30T01:33:45.819Z,83.5
2016-06-30T01:33:54.626Z,82.9
2016-06-30T01:34:05.829Z,82.9
2016-06-30T01:34:15.842Z,82.4
2016-06-30T01:34:25.835Z,82.8
2016-06-30T01:34:35.854Z,82.6
2016-06-30T01:34:45.860Z,82.5
2016-06-30T01:34:55.852Z,82.5
2016-06-30T01:35:05.916Z,82.3
2016-06-30T01:35:15.933Z,82.7
2016-06-30T01:35:24.694Z,82.5
2016-06-30T01:35:35.893Z,82.1
2016-06-30T01:35:45.892Z,82.2
2016-06-30T01:35:55.934Z,82
2016-06-30T01:36:05.908Z,82
2016-06-30T01:36:15.915Z,82.6
2016-06-30T01:36:25.941Z,82.4
2016-06-30T01:36:34.727Z,82
2016-06-30T01:36:45.942Z,82.1
2016-06-30T01:36:55.936Z,82
2016-06-30T01:37:06.057Z,82.1
2016-06-30T01:37:15.961Z,82
2016-06-30T01:37:24.759Z,82.5
2016-06-30T01:37:35.962Z,82.5
2016-06-30T01:37:45.983Z,82.1
2016-06-30T01:37:55.981Z,82.6
2016-06-30T01:38:04.784Z,82.5
2016-06-30T01:38:15.994Z,82.4
2016-06-30T01:38:26.038Z,82.4
2016-06-30T01:38:34.804Z,82.5
2016-06-30T01:38:46.064Z,83
2016-06-30T01:38:56.026Z,83
2016-06-30T01:39:04.834Z,83.1
2016-06-30T01:39:16.034Z,83.2
2016-06-30T01:39:26.073Z,82.9
2016-06-30T01:39:36.044Z,83.5
2016-06-30T01:39:46.064Z,83.7
2016-06-30T01:39:56.090Z,83.6
2016-06-30T01:40:04.874Z,83.5
2016-06-30T01:40:16.079Z,83.6
2016-06-30T01:40:26.083Z,83.8
2016-06-30T01:40:36.082Z,83.6
2016-06-30T01:40:46.150Z,83.5
2016-06-30T01:40:56.098Z,83.9
2016-06-30T01:41:06.129Z,84.1
2016-06-30T01:41:16.144Z,84.2
2016-06-30T01:41:26.118Z,84.3
2016-06-30T01:41:36.129Z,84.2
2016-06-30T01:41:46.119Z,84.1
2016-06-30T01:41:56.127Z,84
2016-06-30T01:42:06.146Z,83.8
2016-06-30T01:42:14.957Z,84
2016-06-30T01:42:26.174Z,83.9
2016-06-30T01:42:36.155Z,84
2016-06-30T01:42:46.202Z,84
2016-06-30T01:42:56.166Z,83.8
2016-06-30T01:43:06.194Z,83.9
2016-06-30T01:43:16.187Z,83.8
2016-06-30T01:43:26.201Z,83.8
2016-06-30T01:43:36.295Z,84
2016-06-30T01:43:46.193Z,84
2016-06-30T01:43:56.224Z,84
2016-06-30T01:44:06.227Z,83.9
2016-06-30T01:44:16.256Z,84.5
2016-06-30T01:44:26.258Z,84.3
2016-06-30T01:44:36.230Z,84.3
2016-06-30T01:44:46.247Z,84.6
2016-06-30T01:44:56.265Z,84.6
2016-06-30T01:45:05.059Z,84.7
2016-06-30T01:45:15.075Z,84.4
2016-06-30T01:45:26.277Z,84.6
2016-06-30T01:45:36.304Z,84.4
2016-06-30T01:45:46.329Z,84.9
2016-06-30T01:45:56.305Z,84.9
2016-06-30T01:46:06.301Z,84.7
2016-06-30T01:46:16.319Z,84.8
2016-06-30T01:46:26.306Z,84.7
2016-06-30T01:46:36.350Z,84.8
2016-06-30T01:46:45.141Z,84.8
2016-06-30T01:46:56.329Z,84.9
2016-06-30T01:47:06.345Z,84.7
2016-06-30T01:47:16.371Z,84.8
2016-06-30T01:47:26.347Z,84.9
2016-06-30T01:47:36.353Z,84.4
2016-06-30T01:47:46.359Z,85
2016-06-30T01:47:55.209Z,84.5
2016-06-30T01:48:06.362Z,84.4
2016-06-30T01:48:16.383Z,84.4
2016-06-30T01:48:25.194Z,84.4
2016-06-30T01:48:36.460Z,84.6
2016-06-30T01:48:46.391Z,84.9
2016-06-30T01:48:56.389Z,84.9
2016-06-30T01:49:05.205Z,84.9
2016-06-30T01:49:16.429Z,84.7
2016-06-30T01:49:25.221Z,84.8
2016-06-30T01:49:36.433Z,84.9
2016-06-30T01:49:46.434Z,85
2016-06-30T01:49:56.436Z,85
2016-06-30T01:50:06.446Z,84.9
2016-06-30T01:50:16.455Z,84.9
2016-06-30T01:50:26.456Z,84.9
2016-06-30T01:50:36.468Z,84.9
2016-06-30T01:50:45.284Z,84.9
2016-06-30T01:50:56.477Z,84.9
2016-06-30T01:51:06.486Z,85
2016-06-30T01:51:16.499Z,85.3
2016-06-30T01:51:26.506Z,85.3
2016-06-30T01:51:36.517Z,85
2016-06-30T01:51:46.537Z,84.9
2016-06-30T01:51:55.347Z,85.3
2016-06-30T01:52:06.527Z,84.9
2016-06-30T01:52:16.530Z,84.8
2016-06-30T01:52:26.582Z,85
2016-06-30T01:52:36.545Z,84.9
2016-06-30T01:52:46.587Z,84.5
2016-06-30T01:52:56.558Z,84.7
2016-06-30T01:53:06.567Z,85.1
2016-06-30T01:53:16.572Z,84.7
2016-06-30T01:53:26.578Z,84.9
2016-06-30T01:53:36.598Z,85.3
2016-06-30T01:53:46.624Z,85.3
2016-06-30T01:53:56.625Z,85.2
2016-06-30T01:54:06.597Z,85.1
2016-06-30T01:54:16.606Z,85.1
2016-06-30T01:54:26.621Z,85.3
2016-06-30T01:54:36.622Z,85.4
2016-06-30T01:54:46.661Z,85.3
2016-06-30T01:54:56.638Z,85.4
2016-06-30T01:55:05.447Z,85.4
2016-06-30T01:55:16.655Z,85.7
2016-06-30T01:55:26.642Z,85.8
2016-06-30T01:55:36.656Z,85.8
2016-06-30T01:55:46.686Z,85.7
2016-06-30T01:55:56.698Z,85.6
2016-06-30T01:56:06.681Z,85.6
2016-06-30T01:56:16.691Z,85.6
2016-06-30T01:56:26.687Z,85.7
2016-06-30T01:56:36.678Z,85.5
2016-06-30T01:56:45.522Z,85.7
2016-06-30T01:56:56.699Z,85.7
2016-06-30T01:57:06.701Z,85.8
2016-06-30T01:57:16.715Z,85.8
2016-06-30T01:57:26.727Z,85.6
2016-06-30T01:57:36.730Z,84.9
2016-06-30T01:57:46.762Z,85.5
2016-06-30T01:57:56.760Z,85.3
2016-06-30T01:58:06.760Z,85.4
2016-06-30T01:58:16.781Z,84.9
2016-06-30T01:58:26.773Z,84.8
2016-06-30T01:58:36.768Z,85.2
2016-06-30T01:58:46.778Z,85
2016-06-30T01:58:56.844Z,85.3
2016-06-30T01:59:06.804Z,85.1
2016-06-30T01:59:15.596Z,85.2
2016-06-30T01:59:26.794Z,84.9
2016-06-30T01:59:35.625Z,85.2
2016-06-30T01:59:46.822Z,85.2
2016-06-30T01:59:56.822Z,85.6
2016-06-30T02:00:06.818Z,85.3
2016-06-30T02:00:16.847Z,85.6
2016-06-30T02:00:26.848Z,85.6
2016-06-30T02:00:36.868Z,85.8
2016-06-30T02:00:45.671Z,85.6
2016-06-30T02:00:56.934Z,85.6
2016-06-30T02:01:06.864Z,85.6
2016-06-30T02:01:16.887Z,85.5
2016-06-30T02:01:26.910Z,85.7
2016-06-30T02:01:35.684Z,85.8
2016-06-30T02:01:46.894Z,85.6
2016-06-30T02:01:56.904Z,85.6
2016-06-30T02:02:05.704Z,85.2
2016-06-30T02:02:16.934Z,85.6
2016-06-30T02:02:26.907Z,85.7
2016-06-30T02:02:36.909Z,86.1
2016-06-30T02:02:46.965Z,86.1
2016-06-30T02:02:56.935Z,86.1
2016-06-30T02:03:06.938Z,86.1
2016-06-30T02:03:16.958Z,85.9
2016-06-30T02:03:26.946Z,86.1
2016-06-30T02:03:36.955Z,85.9
2016-06-30T02:03:46.965Z,85.9
2016-06-30T02:03:56.983Z,86.2
2016-06-30T02:04:06.979Z,86
2016-06-30T02:04:17.003Z,86.1
2016-06-30T02:04:26.992Z,86
2016-06-30T02:04:37.010Z,86
2016-06-30T02:04:47.015Z,86.2
2016-06-30T02:04:57.021Z,86
2016-06-30T02:05:07.073Z,86
2016-06-30T02:05:17.027Z,86.2
2016-06-30T02:05:27.047Z,86.2
2016-06-30T02:05:37.039Z,85.9
2016-06-30T02:05:47.045Z,86.2
2016-06-30T02:05:55.851Z,86.2
2016-06-30T02:06:07.071Z,86
2016-06-30T02:06:17.058Z,86.2
2016-06-30T02:06:27.070Z,86.2
2016-06-30T02:06:37.083Z,86.2
2016-06-30T02:06:47.102Z,86.2
2016-06-30T02:06:57.115Z,86
2016-06-30T02:07:07.089Z,86.2
2016-06-30T02:07:17.094Z,86.2
2016-06-30T02:07:27.118Z,86.3
2016-06-30T02:07:35.926Z,86.2
2016-06-30T02:07:47.116Z,85.9
2016-06-30T02:07:57.124Z,85.9
2016-06-30T02:08:07.153Z,85.9
2016-06-30T02:08:17.146Z,85.9
2016-06-30T02:08:27.146Z,86.1
2016-06-30T02:08:37.154Z,86.1
2016-06-30T02:08:47.178Z,86.3
2016-06-30T02:08:55.983Z,86.6
2016-06-30T02:09:07.169Z,86.2
2016-06-30T02:09:15.988Z,86.6
2016-06-30T02:09:25.994Z,86.2
2016-06-30T02:09:37.199Z,86.4
2016-06-30T02:09:47.227Z,86.2
2016-06-30T02:09:57.254Z,86.9
2016-06-30T02:10:07.218Z,86.7
2016-06-30T02:10:17.251Z,86.6
2016-06-30T02:10:27.222Z,86.6
2016-06-30T02:10:37.228Z,86.7
2016-06-30T02:10:47.241Z,86.8
2016-06-30T02:10:57.244Z,86.3
2016-06-30T02:11:07.256Z,86.8
2016-06-30T02:11:17.266Z,86.8
2016-06-30T02:11:27.281Z,86.2
2016-06-30T02:11:36.075Z,86.3
2016-06-30T02:11:46.090Z,86.5
2016-06-30T02:11:57.275Z,86.6
2016-06-30T02:12:07.280Z,86.2
2016-06-30T02:12:17.295Z,86.5
2016-06-30T02:12:27.307Z,86.4
2016-06-30T02:12:37.314Z,86.5
2016-06-30T02:12:47.316Z,86.7
2016-06-30T02:12:56.132Z,86.7
2016-06-30T02:13:07.324Z,86.8
2016-06-30T02:13:17.390Z,86.8
2016-06-30T02:13:27.350Z,86.4
2016-06-30T02:13:37.346Z,86.6
2016-06-30T02:13:47.355Z,86.9
2016-06-30T02:13:57.362Z,86.8
2016-06-30T02:14:07.371Z,87.3